Terminal Aerodrome Forecast
Issued by NWS Missoula, MT

Home | Current Version | Previous Version | Text Only | Print | Product List | Glossary On
Versions: 1 2 3 4 5 6 7 8 9 10 11 12 13
000
FTUS45 KMSO 300533
TAFBTM
TAF
KBTM 300533Z 3006/3106 16006KT P6SM VCSH BKN090
     FM300900 31005KT P6SM -SHRA BKN060 OVC100
     FM301500 30010KT P6SM VCSH BKN080
     FM302100 30010G16KT P6SM VCTS BKN070CB=

USA.gov is the U.S. government's official web portal to all federal, state and local government web resources and services.